ILE weather

Skylark Field
Killeen, Texas, United States

Public forecast

Using degrees Fahrenheit for public forecast. Weather courtesy of forecast.io.

METAR (pilot weather report)

Retrieved 2019/04/26 14:56 UTC (20 minutes ago):

KILE 261456Z AUTO 03012KT 10SM CLR 20/12 A3020 RMK AO2 SLP238 T02000117 51017

TAF (pilot weather forecast)

Forecast is more than 6 hours old.

Closest forecast is Robert Gray Army Air Field Airport, 7.4 nm (13.7 km) W. Retrieved 2019/04/26 08:13 UTC (7 hours ago):

TAF KGRK 260800Z 2608/2714 34006KT 9999 FEW040 QNH3000INS BECMG 2614/2615 03015G20KT 9999 SKC 510033 QNH3007INS BECMG 2618/2619 06009KT 9999 SKC QNH3004INS TX28/2621Z TN14/2612Z